createdAt,value
2018-04-22T00:01:58.590Z,69.70
2018-04-22T00:04:26.165Z,69.91
2018-04-22T00:06:53.759Z,70.23
2018-04-22T00:09:21.367Z,69.67
2018-04-22T00:11:48.973Z,70.12
2018-04-22T00:14:16.539Z,70.01
2018-04-22T00:16:44.158Z,70.32
2018-04-22T00:19:11.704Z,70.76
2018-04-22T00:21:39.293Z,71.32
2018-04-22T00:24:06.841Z,71.78
2018-04-22T00:26:34.376Z,71.98
2018-04-22T00:29:01.927Z,71.67
2018-04-22T00:31:29.517Z,71.91
2018-04-22T00:33:57.066Z,72.46
2018-04-22T00:36:24.626Z,72.94
2018-04-22T00:38:52.192Z,73.14
2018-04-22T00:41:19.745Z,74.00
2018-04-22T00:43:47.274Z,73.99
2018-04-22T00:46:14.835Z,74.16
2018-04-22T00:48:42.390Z,74.78
2018-04-22T00:51:09.992Z,74.41
2018-04-22T00:53:49.200Z,73.77
2018-04-22T00:56:16.751Z,73.90
2018-04-22T00:58:44.317Z,74.83
2018-04-22T01:01:11.906Z,75.20
2018-04-22T01:03:39.489Z,74.97
2018-04-22T01:06:07.045Z,76.04
2018-04-22T01:08:34.595Z,75.39
2018-04-22T01:11:02.223Z,75.53
2018-04-22T01:13:29.806Z,75.15
2018-04-22T01:15:57.443Z,75.57
2018-04-22T01:18:25.034Z,76.30
2018-04-22T01:20:52.596Z,76.33
2018-04-22T01:23:20.157Z,76.41
2018-04-22T01:25:47.711Z,76.38
2018-04-22T01:28:15.258Z,75.89
2018-04-22T01:30:42.829Z,75.54
2018-04-22T01:33:10.408Z,75.04
2018-04-22T01:35:37.971Z,76.31
2018-04-22T01:38:05.530Z,76.59
2018-04-22T01:40:33.113Z,76.19
2018-04-22T01:43:00.667Z,76.33
2018-04-22T01:45:28.230Z,76.23
2018-04-22T01:47:55.804Z,76.63
2018-04-22T01:50:23.410Z,77.03
2018-04-22T01:52:50.979Z,77.36
2018-04-22T01:55:18.566Z,76.50
2018-04-22T01:57:46.194Z,76.66
2018-04-22T02:00:13.800Z,77.73
2018-04-22T02:02:41.382Z,77.71
2018-04-22T02:05:09.173Z,77.09
2018-04-22T02:07:36.757Z,77.75
2018-04-22T02:10:04.335Z,76.46
2018-04-22T02:12:31.910Z,76.05
2018-04-22T02:14:59.473Z,76.33
2018-04-22T02:17:27.021Z,76.34
2018-04-22T02:19:54.609Z,75.82
2018-04-22T02:22:22.218Z,76.04
2018-04-22T02:24:49.777Z,76.10
2018-04-22T02:27:17.355Z,76.47
2018-04-22T02:29:44.915Z,76.78
2018-04-22T02:32:12.513Z,76.53
2018-04-22T02:34:40.104Z,76.51
2018-04-22T02:37:07.664Z,76.26
2018-04-22T02:39:35.242Z,76.33
2018-04-22T02:42:02.909Z,76.85
2018-04-22T02:44:30.446Z,77.40
2018-04-22T02:46:57.979Z,77.10
2018-04-22T02:49:25.571Z,77.58
2018-04-22T02:51:53.147Z,79.10
2018-04-22T02:54:20.704Z,80.14
2018-04-22T02:56:48.296Z,80.16
2018-04-22T02:59:15.851Z,79.91
2018-04-22T03:01:43.405Z,79.74
2018-04-22T03:04:10.962Z,79.22
2018-04-22T03:06:38.513Z,79.86
2018-04-22T03:09:06.047Z,80.01
2018-04-22T03:11:33.653Z,79.75
2018-04-22T03:14:01.205Z,80.02
2018-04-22T03:16:28.816Z,79.89
2018-04-22T03:18:56.369Z,79.81
2018-04-22T03:21:23.980Z,79.95
2018-04-22T03:23:51.591Z,80.25
2018-04-22T03:26:19.194Z,80.45
2018-04-22T03:28:46.749Z,80.90
2018-04-22T03:31:14.373Z,80.94
2018-04-22T03:33:41.958Z,81.10
2018-04-22T03:36:09.516Z,81.40
2018-04-22T03:38:37.083Z,81.68
2018-04-22T03:41:04.675Z,82.39
2018-04-22T03:43:32.251Z,82.47
2018-04-22T03:45:59.814Z,82.43
2018-04-22T03:48:27.368Z,82.73
2018-04-22T03:50:54.997Z,82.70
2018-04-22T03:53:22.563Z,83.32
2018-04-22T03:55:50.142Z,83.31
2018-04-22T03:58:17.689Z,83.44
2018-04-22T04:00:45.265Z,83.31
2018-04-22T04:03:12.827Z,83.88
2018-04-22T04:05:40.415Z,84.12
2018-04-22T04:08:08.087Z,84.06
2018-04-22T04:10:35.643Z,84.04
2018-04-22T04:13:03.226Z,85.37
2018-04-22T04:15:30.787Z,85.56
2018-04-22T04:21:14.751Z,84.37
2018-04-22T04:26:58.916Z,85.15
2018-04-22T04:29:26.505Z,85.20
2018-04-22T04:31:54.092Z,84.25
2018-04-22T04:34:21.755Z,84.34
2018-04-22T04:36:49.324Z,84.73
2018-04-22T04:39:16.903Z,85.66
2018-04-22T04:41:44.450Z,85.86
2018-04-22T04:44:12.024Z,85.93
2018-04-22T04:46:39.585Z,86.93
2018-04-22T04:49:07.140Z,86.64
2018-04-22T04:51:34.688Z,87.05
2018-04-22T04:54:02.248Z,87.29
2018-04-22T04:56:29.857Z,88.38
2018-04-22T04:58:57.419Z,88.20
2018-04-22T05:01:24.990Z,88.20
2018-04-22T05:03:52.550Z,88.44
2018-04-22T05:06:20.193Z,88.66
2018-04-22T05:08:47.733Z,87.99
2018-04-22T05:11:15.307Z,86.00
2018-04-22T05:13:42.873Z,85.60
2018-04-22T05:16:10.457Z,85.71
2018-04-22T05:18:38.081Z,86.52
2018-04-22T05:21:05.601Z,86.78
2018-04-22T05:23:33.676Z,85.27
2018-04-22T05:26:01.251Z,84.22
2018-04-22T05:28:28.800Z,83.81
2018-04-22T05:30:56.428Z,83.39
2018-04-22T05:33:24.145Z,82.99
2018-04-22T05:35:51.749Z,82.34
2018-04-22T05:38:19.312Z,81.48
2018-04-22T05:40:50.115Z,81.23
2018-04-22T05:43:17.860Z,80.15
2018-04-22T05:45:45.569Z,79.93
2018-04-22T05:48:13.349Z,79.65
2018-04-22T05:50:41.011Z,79.39
2018-04-22T05:53:08.639Z,80.37
2018-04-22T05:55:36.196Z,82.41
2018-04-22T05:58:03.745Z,77.01
2018-04-22T06:00:31.569Z,73.69
2018-04-22T06:02:59.110Z,74.03
2018-04-22T06:05:27.047Z,72.58
2018-04-22T06:07:54.610Z,72.25
2018-04-22T06:10:22.154Z,71.21
2018-04-22T06:12:49.819Z,71.02
2018-04-22T06:15:19.041Z,69.78
2018-04-22T06:17:47.758Z,68.20
2018-04-22T06:20:15.330Z,68.07
2018-04-22T06:22:43.593Z,67.05
2018-04-22T06:25:11.846Z,66.17
2018-04-22T06:27:41.583Z,66.37
2018-04-22T06:30:15.285Z,65.13
2018-04-22T06:32:43.020Z,64.81
2018-04-22T06:35:10.604Z,63.79
2018-04-22T06:37:38.237Z,62.59
2018-04-22T06:40:06.025Z,59.78
2018-04-22T06:42:33.763Z,59.25
2018-04-22T06:45:01.437Z,59.44
2018-04-22T06:47:29.108Z,60.57
2018-04-22T06:49:56.827Z,61.85
2018-04-22T06:52:25.754Z,62.11
2018-04-22T06:54:54.846Z,61.40
2018-04-22T06:57:22.448Z,60.71
2018-04-22T06:59:50.072Z,59.31
2018-04-22T07:02:18.608Z,59.85
2018-04-22T07:04:46.528Z,58.63
2018-04-22T07:07:17.864Z,59.42
2018-04-22T07:09:48.081Z,57.76
2018-04-22T07:12:17.330Z,61.43
2018-04-22T07:14:46.517Z,56.42
2018-04-22T07:17:14.648Z,57.25
2018-04-22T07:19:43.782Z,56.84
2018-04-22T07:22:12.137Z,58.04
2018-04-22T07:24:39.845Z,56.01
2018-04-22T07:27:07.399Z,60.09
2018-04-22T07:29:35.066Z,57.41
2018-04-22T07:32:02.814Z,53.45
2018-04-22T07:34:30.429Z,51.32
2018-04-22T07:36:57.970Z,51.09
2018-04-22T07:39:25.557Z,51.55
2018-04-22T07:41:53.172Z,49.08
2018-04-22T07:44:20.821Z,50.07
2018-04-22T07:46:48.662Z,50.68
2018-04-22T07:49:16.226Z,49.98
2018-04-22T07:51:43.850Z,50.45
2018-04-22T07:54:11.790Z,52.94
2018-04-22T07:56:39.407Z,53.41
2018-04-22T07:59:07.001Z,53.66
2018-04-22T08:01:34.895Z,52.04
2018-04-22T08:04:02.541Z,52.55
2018-04-22T08:06:30.191Z,52.71
2018-04-22T08:08:57.763Z,49.57
2018-04-22T08:11:25.312Z,53.31
2018-04-22T08:13:52.975Z,50.21
2018-04-22T08:16:20.728Z,49.85
2018-04-22T08:18:48.295Z,51.10
2018-04-22T08:21:15.860Z,50.83
2018-04-22T08:23:43.421Z,49.05
2018-04-22T08:26:11.012Z,52.66
2018-04-22T08:28:38.580Z,52.54
2018-04-22T08:31:06.163Z,49.98
2018-04-22T08:33:33.754Z,50.83
2018-04-22T08:36:01.333Z,53.22
2018-04-22T08:38:28.900Z,52.56
2018-04-22T08:40:56.447Z,52.62
2018-04-22T08:43:24.039Z,52.61
2018-04-22T08:45:51.626Z,52.88
2018-04-22T08:48:19.218Z,52.70
2018-04-22T08:50:46.776Z,51.78
2018-04-22T08:53:14.381Z,51.81
2018-04-22T08:55:41.925Z,51.78
2018-04-22T08:58:09.562Z,51.39
2018-04-22T09:00:37.117Z,52.99
2018-04-22T09:03:04.677Z,50.86
2018-04-22T09:05:32.242Z,50.62
2018-04-22T09:08:00.461Z,49.43
2018-04-22T09:10:28.038Z,49.62
2018-04-22T09:12:55.930Z,49.27
2018-04-22T09:15:23.624Z,49.05
2018-04-22T09:17:51.484Z,48.90
2018-04-22T09:24:55.766Z,48.74
2018-04-22T09:27:23.275Z,48.53
2018-04-22T09:29:50.950Z,49.77
2018-04-22T09:32:18.486Z,51.30
2018-04-22T09:34:46.002Z,51.46
2018-04-22T09:37:13.596Z,50.03
2018-04-22T09:39:41.114Z,50.56
2018-04-22T09:42:08.623Z,50.52
2018-04-22T09:44:36.125Z,50.57
2018-04-22T09:47:03.655Z,50.87
2018-04-22T09:49:31.175Z,51.91
2018-04-22T09:51:58.718Z,50.62
2018-04-22T09:54:26.946Z,51.52
2018-04-22T09:56:54.499Z,51.19
2018-04-22T09:59:22.015Z,51.09
2018-04-22T10:01:49.533Z,51.40
2018-04-22T10:04:17.116Z,51.38
2018-04-22T10:06:44.641Z,51.69
2018-04-22T10:09:12.173Z,51.43
2018-04-22T10:11:39.717Z,52.23
2018-04-22T10:14:07.267Z,54.57
2018-04-22T10:16:34.827Z,53.95
2018-04-22T10:19:02.352Z,52.57
2018-04-22T10:21:29.885Z,53.57
2018-04-22T10:23:57.396Z,50.86
2018-04-22T10:26:24.907Z,51.10
2018-04-22T10:28:52.429Z,51.81
2018-04-22T10:31:19.956Z,51.37
2018-04-22T10:33:47.723Z,52.43
2018-04-22T10:36:15.259Z,52.64
2018-04-22T10:38:43.474Z,53.35
2018-04-22T10:41:11.011Z,53.28
2018-04-22T10:43:38.530Z,53.38
2018-04-22T10:46:06.028Z,54.29
2018-04-22T10:48:33.549Z,54.29
2018-04-22T10:51:01.061Z,54.66
2018-04-22T10:53:28.590Z,53.89
2018-04-22T10:55:56.110Z,54.23
2018-04-22T10:58:23.628Z,53.48
2018-04-22T11:00:51.162Z,54.18
2018-04-22T11:03:18.699Z,53.99
2018-04-22T11:05:46.227Z,54.00
2018-04-22T11:08:13.743Z,54.26
2018-04-22T11:10:41.437Z,54.05
2018-04-22T11:13:11.327Z,54.58
2018-04-22T11:15:38.865Z,54.79
2018-04-22T11:18:06.430Z,53.70
2018-04-22T11:20:33.943Z,54.44
2018-04-22T11:23:02.020Z,54.87
2018-04-22T11:25:29.543Z,53.32
2018-04-22T11:27:57.087Z,53.63
2018-04-22T11:30:24.639Z,54.31
2018-04-22T11:32:52.165Z,53.65
2018-04-22T11:35:19.759Z,55.00
2018-04-22T11:37:47.876Z,53.91
2018-04-22T11:40:15.509Z,55.74
2018-04-22T11:42:43.032Z,54.06
2018-04-22T11:45:10.754Z,55.38
2018-04-22T11:47:38.442Z,53.91
2018-04-22T11:50:05.986Z,55.30
2018-04-22T11:52:33.637Z,57.02
2018-04-22T11:55:01.171Z,56.82
2018-04-22T11:57:28.974Z,57.05
2018-04-22T11:59:56.561Z,55.49
2018-04-22T12:02:24.049Z,56.01
2018-04-22T12:04:51.959Z,56.81
2018-04-22T12:07:19.492Z,56.85
2018-04-22T12:09:47.041Z,57.19
2018-04-22T12:12:14.536Z,57.17
2018-04-22T12:14:42.227Z,56.78
2018-04-22T12:17:10.121Z,56.00
2018-04-22T12:19:37.637Z,55.02
2018-04-22T12:22:05.151Z,55.21
2018-04-22T12:24:32.696Z,57.10
2018-04-22T12:27:00.206Z,55.25
2018-04-22T12:29:27.737Z,55.06
2018-04-22T12:31:55.264Z,54.21
2018-04-22T12:34:22.802Z,54.69
2018-04-22T12:36:50.312Z,55.21
2018-04-22T12:39:17.846Z,56.21
2018-04-22T12:41:45.360Z,55.35
2018-04-22T12:44:12.868Z,55.89
2018-04-22T12:46:40.386Z,54.58
2018-04-22T12:49:08.480Z,54.47
2018-04-22T12:51:35.992Z,53.13
2018-04-22T12:54:03.521Z,55.14
2018-04-22T12:56:31.057Z,55.07
2018-04-22T12:58:58.586Z,54.92
2018-04-22T13:01:26.099Z,56.55
2018-04-22T13:03:53.648Z,53.79
2018-04-22T13:06:21.198Z,52.92
2018-04-22T13:08:48.709Z,52.17
2018-04-22T13:11:16.248Z,52.37
2018-04-22T13:13:43.804Z,53.54
2018-04-22T13:16:11.360Z,52.90
2018-04-22T13:18:38.871Z,53.31
2018-04-22T13:21:06.499Z,53.29
2018-04-22T13:23:34.060Z,54.93
2018-04-22T13:26:02.355Z,52.52
2018-04-22T13:28:29.881Z,52.76
2018-04-22T13:30:57.404Z,52.68
2018-04-22T13:33:24.941Z,53.07
2018-04-22T13:35:52.577Z,52.96
2018-04-22T13:38:20.085Z,53.88
2018-04-22T13:40:47.689Z,52.36
2018-04-22T13:43:15.208Z,53.33
2018-04-22T13:45:42.733Z,53.60
2018-04-22T13:48:10.266Z,55.67
2018-04-22T13:50:37.819Z,55.03
2018-04-22T13:53:05.327Z,56.13
2018-04-22T13:55:33.511Z,55.75
2018-04-22T13:58:01.029Z,56.04
2018-04-22T14:00:28.575Z,54.92
2018-04-22T14:02:56.162Z,55.73
2018-04-22T14:05:23.676Z,55.26
2018-04-22T14:07:51.885Z,55.80
2018-04-22T14:10:19.411Z,55.52
2018-04-22T14:12:46.939Z,55.73
2018-04-22T14:15:14.436Z,56.31
2018-04-22T14:17:41.959Z,55.73
2018-04-22T14:20:09.483Z,56.24
2018-04-22T14:22:36.997Z,56.74
2018-04-22T14:25:04.741Z,58.42
2018-04-22T14:27:32.259Z,58.14
2018-04-22T14:29:59.787Z,57.06
2018-04-22T14:32:27.314Z,56.59
2018-04-22T14:34:54.815Z,56.66
2018-04-22T14:37:22.345Z,57.18
2018-04-22T14:39:49.873Z,57.12
2018-04-22T14:42:18.008Z,56.57
2018-04-22T14:44:57.246Z,56.52
2018-04-22T14:47:25.491Z,57.19
2018-04-22T14:49:53.011Z,57.34
2018-04-22T14:52:20.533Z,56.75
2018-04-22T14:54:48.466Z,57.15
2018-04-22T14:57:15.984Z,56.27
2018-04-22T14:59:43.500Z,56.62
2018-04-22T15:02:11.014Z,56.00
2018-04-22T15:04:38.559Z,55.58
2018-04-22T15:07:06.081Z,54.36
2018-04-22T15:09:33.642Z,54.55
2018-04-22T15:12:01.164Z,56.36
2018-04-22T15:14:28.664Z,56.63
2018-04-22T15:16:56.179Z,56.36
2018-04-22T15:19:23.709Z,56.61
2018-04-22T15:21:51.227Z,56.15
2018-04-22T15:24:18.765Z,55.97
2018-04-22T15:26:46.306Z,56.34
2018-04-22T15:29:13.813Z,56.35
2018-04-22T15:31:41.351Z,56.19
2018-04-22T15:34:08.926Z,56.55
2018-04-22T15:36:36.436Z,57.07
2018-04-22T15:39:03.981Z,57.26
2018-04-22T15:41:31.519Z,57.17
2018-04-22T15:43:59.079Z,56.79
2018-04-22T15:46:26.585Z,56.98
2018-04-22T15:48:54.088Z,56.69
2018-04-22T15:51:21.686Z,57.08
2018-04-22T15:53:49.193Z,56.71
2018-04-22T15:56:16.710Z,58.07
2018-04-22T17:52:51.626Z,63.57
2018-04-22T17:55:19.283Z,63.88
2018-04-22T17:57:47.118Z,64.25
2018-04-22T18:00:14.707Z,66.71
2018-04-22T18:02:43.370Z,63.53
2018-04-22T18:05:19.247Z,63.98
2018-04-22T18:07:47.373Z,66.75
2018-04-22T18:10:15.160Z,67.55
2018-04-22T18:12:42.721Z,72.81
2018-04-22T18:15:10.485Z,75.43
2018-04-22T18:17:44.513Z,79.83
2018-04-22T18:20:12.078Z,84.96
2018-04-22T18:22:39.716Z,86.05
2018-04-22T18:25:07.258Z,89.35
2018-04-22T18:27:34.939Z,89.50
2018-04-22T18:30:02.547Z,89.75
2018-04-22T18:32:30.161Z,89.90
2018-04-22T18:34:57.757Z,90.10
2018-04-22T18:37:25.299Z,89.88
2018-04-22T18:39:52.825Z,92.15
2018-04-22T18:42:20.359Z,91.84
2018-04-22T18:44:47.951Z,90.26
2018-04-22T18:47:17.569Z,90.99
2018-04-22T18:49:45.409Z,91.29
2018-04-22T18:52:13.224Z,92.32
2018-04-22T18:54:40.782Z,92.95
2018-04-22T18:57:08.460Z,90.54
2018-04-22T18:59:36.055Z,91.16
2018-04-22T19:02:03.581Z,91.87
2018-04-22T19:04:31.330Z,91.52
2018-04-22T19:06:59.067Z,91.99
2018-04-22T19:09:28.034Z,93.56
2018-04-22T19:11:56.527Z,92.10
2018-04-22T19:17:27.904Z,91.48
2018-04-22T19:19:57.000Z,92.58
2018-04-22T19:22:24.585Z,92.59
2018-04-22T19:24:52.315Z,93.18
2018-04-22T19:27:19.951Z,90.86
2018-04-22T19:29:47.569Z,91.34
2018-04-22T19:32:15.236Z,92.29
2018-04-22T19:34:42.791Z,93.04
2018-04-22T19:37:10.345Z,91.96
2018-04-22T19:39:37.963Z,92.14
2018-04-22T19:42:05.560Z,90.89
2018-04-22T19:44:33.227Z,91.93
2018-04-22T19:47:00.795Z,93.41
2018-04-22T19:49:28.365Z,95.52
2018-04-22T19:51:55.967Z,94.00
2018-04-22T19:54:23.749Z,92.75
2018-04-22T19:56:51.343Z,94.34
2018-04-22T19:59:18.925Z,94.79
2018-04-22T20:01:46.502Z,93.87
2018-04-22T20:04:26.117Z,94.43
2018-04-22T20:06:53.704Z,93.69
2018-04-22T20:09:21.285Z,94.91
2018-04-22T20:11:49.173Z,94.80
2018-04-22T20:14:16.733Z,91.72
2018-04-22T20:16:44.313Z,92.33
2018-04-22T20:19:11.891Z,94.50
2018-04-22T20:21:39.706Z,94.38
2018-04-22T20:24:07.258Z,95.76
2018-04-22T20:26:35.014Z,95.87
2018-04-22T20:29:02.585Z,97.89
2018-04-22T20:31:30.158Z,97.07
2018-04-22T20:33:57.706Z,97.86
2018-04-22T20:36:25.329Z,97.51
2018-04-22T20:38:52.887Z,97.45
2018-04-22T20:41:20.447Z,96.37
2018-04-22T20:43:47.987Z,94.70
2018-04-22T20:46:15.607Z,95.39
2018-04-22T20:48:43.168Z,96.13
2018-04-22T20:51:10.718Z,95.77
2018-04-22T20:53:39.371Z,96.08
2018-04-22T20:56:06.944Z,95.02
2018-04-22T20:58:34.754Z,94.76
2018-04-22T21:01:02.532Z,95.68
2018-04-22T21:03:30.160Z,94.13
2018-04-22T21:05:57.676Z,94.46
2018-04-22T21:08:25.231Z,95.69
2018-04-22T21:10:53.814Z,95.37
2018-04-22T21:13:21.608Z,94.27
2018-04-22T21:15:49.212Z,93.93
2018-04-22T21:18:16.780Z,94.89
2018-04-22T21:20:44.354Z,95.69
2018-04-22T21:23:11.919Z,94.81
2018-04-22T21:25:40.497Z,95.40
2018-04-22T21:28:08.239Z,95.95
2018-04-22T21:30:35.838Z,94.22
2018-04-22T21:33:03.401Z,95.43
2018-04-22T21:35:31.188Z,94.68
2018-04-22T21:37:58.902Z,95.20
2018-04-22T21:40:26.540Z,95.35
2018-04-22T21:42:54.142Z,94.26
2018-04-22T21:45:22.197Z,94.80
2018-04-22T21:47:49.814Z,95.28
2018-04-22T21:50:17.464Z,95.74
2018-04-22T21:52:45.016Z,96.01
2018-04-22T21:55:12.567Z,95.35
2018-04-22T21:57:40.368Z,95.78
2018-04-22T22:00:07.953Z,94.93
2018-04-22T22:02:35.483Z,94.64
2018-04-22T22:05:03.077Z,95.41
2018-04-22T22:07:30.606Z,95.80
2018-04-22T22:09:58.162Z,96.05
2018-04-22T22:12:25.715Z,97.33
2018-04-22T22:14:53.285Z,97.09
2018-04-22T22:17:20.868Z,97.48
2018-04-22T22:19:48.405Z,96.73
2018-04-22T22:22:15.977Z,96.41
2018-04-22T22:24:43.547Z,96.43
2018-04-22T22:27:11.111Z,96.75
2018-04-22T22:29:38.670Z,96.45
2018-04-22T22:32:06.258Z,95.04
2018-04-22T22:34:33.837Z,95.05
2018-04-22T22:37:01.392Z,94.64
2018-04-22T22:39:28.936Z,94.79
2018-04-22T22:41:56.504Z,95.12
2018-04-22T22:44:24.069Z,94.55
2018-04-22T22:46:51.631Z,95.33
2018-04-22T22:49:19.195Z,95.50
2018-04-22T22:51:46.760Z,95.89
2018-04-22T22:54:14.322Z,95.66
2018-04-22T22:56:41.902Z,96.07
2018-04-22T22:59:09.449Z,96.40
2018-04-22T23:01:37.041Z,95.85
2018-04-22T23:04:04.576Z,96.90
2018-04-22T23:06:32.121Z,96.94
2018-04-22T23:08:59.683Z,96.55
2018-04-22T23:11:27.230Z,96.74
2018-04-22T23:13:54.813Z,96.66
2018-04-22T23:16:22.394Z,97.21
2018-04-22T23:18:49.933Z,98.34
2018-04-22T23:21:17.491Z,97.84
2018-04-22T23:23:45.189Z,97.86
2018-04-22T23:26:12.758Z,97.76
2018-04-22T23:28:40.320Z,97.58
2018-04-22T23:31:07.865Z,97.72
2018-04-22T23:33:35.438Z,98.16
2018-04-22T23:36:03.012Z,98.13
2018-04-22T23:38:30.560Z,98.17
2018-04-22T23:40:58.113Z,98.30
2018-04-22T23:43:25.687Z,98.02
2018-04-22T23:45:53.251Z,98.69
2018-04-22T23:48:20.854Z,98.99
2018-04-22T23:50:48.413Z,99.16
2018-04-22T23:53:15.987Z,99.18
2018-04-22T23:55:43.529Z,99.15
2018-04-22T23:58:11.097Z,99.28
